sensor_id;sensor_type;location;lat;lon;timestamp;temperature;humidity
17174;DHT22;8702;48.130;-1.696;2022-09-12T00:00:42;21.90;95.90
17174;DHT22;8702;48.130;-1.696;2022-09-12T00:03:09;21.90;96.00
17174;DHT22;8702;48.130;-1.696;2022-09-12T00:05:40;21.90;96.00
17174;DHT22;8702;48.130;-1.696;2022-09-12T00:08:07;21.90;96.10
17174;DHT22;8702;48.130;-1.696;2022-09-12T00:10:37;21.80;96.00
17174;DHT22;8702;48.130;-1.696;2022-09-12T00:13:05;21.80;96.20
17174;DHT22;8702;48.130;-1.696;2022-09-12T00:15:37;21.80;96.20
17174;DHT22;8702;48.130;-1.696;2022-09-12T00:18:04;21.70;96.30
17174;DHT22;8702;48.130;-1.696;2022-09-12T00:20:31;21.70;96.40
17174;DHT22;8702;48.130;-1.696;2022-09-12T00:22:58;21.70;96.20
17174;DHT22;8702;48.130;-1.696;2022-09-12T00:25:25;21.70;96.20
17174;DHT22;8702;48.130;-1.696;2022-09-12T00:27:56;21.70;96.30
17174;DHT22;8702;48.130;-1.696;2022-09-12T00:30:23;21.60;96.20
17174;DHT22;8702;48.130;-1.696;2022-09-12T00:32:50;21.60;96.20
17174;DHT22;8702;48.130;-1.696;2022-09-12T00:35:19;21.60;96.30
17174;DHT22;8702;48.130;-1.696;2022-09-12T00:37:46;21.60;96.30
17174;DHT22;8702;48.130;-1.696;2022-09-12T00:40:13;21.60;96.40
17174;DHT22;8702;48.130;-1.696;2022-09-12T00:42:40;21.50;96.40
17174;DHT22;8702;48.130;-1.696;2022-09-12T00:45:19;21.50;96.50
17174;DHT22;8702;48.130;-1.696;2022-09-12T00:47:51;21.50;96.50
17174;DHT22;8702;48.130;-1.696;2022-09-12T00:50:18;21.50;96.50
17174;DHT22;8702;48.130;-1.696;2022-09-12T00:52:48;21.50;96.40
17174;DHT22;8702;48.130;-1.696;2022-09-12T00:55:19;21.50;96.50
17174;DHT22;8702;48.130;-1.696;2022-09-12T00:57:50;21.50;96.50
17174;DHT22;8702;48.130;-1.696;2022-09-12T01:00:22;21.60;96.80
17174;DHT22;8702;48.130;-1.696;2022-09-12T01:02:52;21.60;96.60
17174;DHT22;8702;48.130;-1.696;2022-09-12T01:05:21;21.60;96.50
17174;DHT22;8702;48.130;-1.696;2022-09-12T01:07:49;21.60;96.60
17174;DHT22;8702;48.130;-1.696;2022-09-12T01:10:18;21.50;96.70
17174;DHT22;8702;48.130;-1.696;2022-09-12T01:12:45;21.50;96.80
17174;DHT22;8702;48.130;-1.696;2022-09-12T01:15:13;21.40;96.80
17174;DHT22;8702;48.130;-1.696;2022-09-12T01:17:52;21.40;96.80
17174;DHT22;8702;48.130;-1.696;2022-09-12T01:20:34;21.40;96.90
17174;DHT22;8702;48.130;-1.696;2022-09-12T01:27:04;21.30;97.00
17174;DHT22;8702;48.130;-1.696;2022-09-12T01:30:02;21.30;97.10
17174;DHT22;8702;48.130;-1.696;2022-09-12T01:32:39;21.20;97.00
17174;DHT22;8702;48.130;-1.696;2022-09-12T01:35:17;21.20;97.10
17174;DHT22;8702;48.130;-1.696;2022-09-12T01:37:53;21.20;97.00
17174;DHT22;8702;48.130;-1.696;2022-09-12T01:40:30;21.20;97.10
17174;DHT22;8702;48.130;-1.696;2022-09-12T01:43:04;21.10;97.00
17174;DHT22;8702;48.130;-1.696;2022-09-12T01:45:40;21.10;97.10
17174;DHT22;8702;48.130;-1.696;2022-09-12T01:48:15;21.10;97.20
17174;DHT22;8702;48.130;-1.696;2022-09-12T01:50:50;21.10;97.20
17174;DHT22;8702;48.130;-1.696;2022-09-12T01:53:21;21.00;97.20
17174;DHT22;8702;48.130;-1.696;2022-09-12T01:55:53;21.00;97.30
17174;DHT22;8702;48.130;-1.696;2022-09-12T01:58:24;21.00;97.20
17174;DHT22;8702;48.130;-1.696;2022-09-12T02:00:59;20.90;97.40
17174;DHT22;8702;48.130;-1.696;2022-09-12T02:03:32;20.90;97.40
17174;DHT22;8702;48.130;-1.696;2022-09-12T02:06:06;20.90;97.50
17174;DHT22;8702;48.130;-1.696;2022-09-12T02:08:38;20.90;97.40
17174;DHT22;8702;48.130;-1.696;2022-09-12T02:11:08;20.80;97.60
17174;DHT22;8702;48.130;-1.696;2022-09-12T02:13:40;20.80;97.60
17174;DHT22;8702;48.130;-1.696;2022-09-12T02:16:10;20.80;97.60
17174;DHT22;8702;48.130;-1.696;2022-09-12T02:18:42;20.80;97.70
17174;DHT22;8702;48.130;-1.696;2022-09-12T02:21:10;20.70;97.70
17174;DHT22;8702;48.130;-1.696;2022-09-12T02:23:44;20.70;97.80
17174;DHT22;8702;48.130;-1.696;2022-09-12T02:26:19;20.70;97.90
17174;DHT22;8702;48.130;-1.696;2022-09-12T02:28:47;20.60;98.00
17174;DHT22;8702;48.130;-1.696;2022-09-12T02:31:21;20.60;98.00
17174;DHT22;8702;48.130;-1.696;2022-09-12T02:33:59;20.60;97.90
17174;DHT22;8702;48.130;-1.696;2022-09-12T02:36:33;20.60;98.00
17174;DHT22;8702;48.130;-1.696;2022-09-12T02:39:05;20.60;97.90
17174;DHT22;8702;48.130;-1.696;2022-09-12T02:41:32;20.60;98.00
17174;DHT22;8702;48.130;-1.696;2022-09-12T02:43:59;20.60;98.00
17174;DHT22;8702;48.130;-1.696;2022-09-12T02:46:29;20.50;98.00
17174;DHT22;8702;48.130;-1.696;2022-09-12T02:48:58;20.50;98.10
17174;DHT22;8702;48.130;-1.696;2022-09-12T02:51:26;20.50;98.20
17174;DHT22;8702;48.130;-1.696;2022-09-12T02:53:53;20.40;98.20
17174;DHT22;8702;48.130;-1.696;2022-09-12T02:56:23;20.40;98.30
17174;DHT22;8702;48.130;-1.696;2022-09-12T02:58:51;20.40;98.30
17174;DHT22;8702;48.130;-1.696;2022-09-12T03:01:29;20.40;98.20
17174;DHT22;8702;48.130;-1.696;2022-09-12T03:04:12;20.40;98.40
17174;DHT22;8702;48.130;-1.696;2022-09-12T03:06:50;20.30;98.50
17174;DHT22;8702;48.130;-1.696;2022-09-12T03:09:26;20.30;98.50
17174;DHT22;8702;48.130;-1.696;2022-09-12T03:12:06;20.30;98.60
17174;DHT22;8702;48.130;-1.696;2022-09-12T03:15:02;20.20;98.70
17174;DHT22;8702;48.130;-1.696;2022-09-12T03:17:42;20.10;98.90
17174;DHT22;8702;48.130;-1.696;2022-09-12T03:20:14;20.10;99.00
17174;DHT22;8702;48.130;-1.696;2022-09-12T03:22:48;20.10;98.90
17174;DHT22;8702;48.130;-1.696;2022-09-12T03:25:20;20.10;99.00
17174;DHT22;8702;48.130;-1.696;2022-09-12T03:27:52;20.10;99.00
17174;DHT22;8702;48.130;-1.696;2022-09-12T03:30:22;20.10;99.10
17174;DHT22;8702;48.130;-1.696;2022-09-12T03:32:50;20.10;99.00
17174;DHT22;8702;48.130;-1.696;2022-09-12T03:35:20;20.10;99.00
17174;DHT22;8702;48.130;-1.696;2022-09-12T03:37:48;20.20;99.00
17174;DHT22;8702;48.130;-1.696;2022-09-12T03:40:15;20.20;99.00
17174;DHT22;8702;48.130;-1.696;2022-09-12T03:42:42;20.20;99.00
17174;DHT22;8702;48.130;-1.696;2022-09-12T03:45:09;20.20;99.00
17174;DHT22;8702;48.130;-1.696;2022-09-12T03:47:37;20.20;99.00
17174;DHT22;8702;48.130;-1.696;2022-09-12T03:50:04;20.30;99.00
17174;DHT22;8702;48.130;-1.696;2022-09-12T03:52:33;20.30;99.00
17174;DHT22;8702;48.130;-1.696;2022-09-12T03:55:00;20.30;98.90
17174;DHT22;8702;48.130;-1.696;2022-09-12T03:57:27;20.30;98.90
17174;DHT22;8702;48.130;-1.696;2022-09-12T03:59:54;20.30;98.90
17174;DHT22;8702;48.130;-1.696;2022-09-12T04:02:21;20.30;98.90
17174;DHT22;8702;48.130;-1.696;2022-09-12T04:04:48;20.40;98.80
17174;DHT22;8702;48.130;-1.696;2022-09-12T04:07:15;20.40;98.80
17174;DHT22;8702;48.130;-1.696;2022-09-12T04:09:44;20.40;98.90
17174;DHT22;8702;48.130;-1.696;2022-09-12T04:12:11;20.40;98.90
17174;DHT22;8702;48.130;-1.696;2022-09-12T04:14:39;20.40;98.80
17174;DHT22;8702;48.130;-1.696;2022-09-12T04:17:06;20.50;98.80
17174;DHT22;8702;48.130;-1.696;2022-09-12T04:19:33;20.50;98.80
17174;DHT22;8702;48.130;-1.696;2022-09-12T04:22:00;20.50;98.90
17174;DHT22;8702;48.130;-1.696;2022-09-12T04:24:27;20.40;99.00
17174;DHT22;8702;48.130;-1.696;2022-09-12T04:26:55;20.40;98.90
17174;DHT22;8702;48.130;-1.696;2022-09-12T04:29:22;20.40;99.00
17174;DHT22;8702;48.130;-1.696;2022-09-12T04:31:49;20.40;99.00
17174;DHT22;8702;48.130;-1.696;2022-09-12T04:34:16;20.30;99.10
17174;DHT22;8702;48.130;-1.696;2022-09-12T04:36:44;20.30;99.10
17174;DHT22;8702;48.130;-1.696;2022-09-12T04:39:11;20.30;99.10
17174;DHT22;8702;48.130;-1.696;2022-09-12T04:41:38;20.30;99.10
17174;DHT22;8702;48.130;-1.696;2022-09-12T04:44:10;20.30;99.30
17174;DHT22;8702;48.130;-1.696;2022-09-12T04:46:39;20.20;99.30
17174;DHT22;8702;48.130;-1.696;2022-09-12T04:49:07;20.20;99.40
17174;DHT22;8702;48.130;-1.696;2022-09-12T04:51:36;20.10;99.40
17174;DHT22;8702;48.130;-1.696;2022-09-12T04:54:05;20.10;99.60
17174;DHT22;8702;48.130;-1.696;2022-09-12T04:56:35;20.00;99.70
17174;DHT22;8702;48.130;-1.696;2022-09-12T04:59:03;20.00;99.60
17174;DHT22;8702;48.130;-1.696;2022-09-12T05:01:31;20.00;99.80
17174;DHT22;8702;48.130;-1.696;2022-09-12T05:03:58;19.90;99.80
17174;DHT22;8702;48.130;-1.696;2022-09-12T05:06:27;19.90;99.90
17174;DHT22;8702;48.130;-1.696;2022-09-12T05:08:55;19.80;99.90
17174;DHT22;8702;48.130;-1.696;2022-09-12T05:11:25;19.70;99.90
17174;DHT22;8702;48.130;-1.696;2022-09-12T05:13:52;19.70;99.90
17174;DHT22;8702;48.130;-1.696;2022-09-12T05:16:20;19.70;99.90
17174;DHT22;8702;48.130;-1.696;2022-09-12T05:18:48;19.60;99.90
17174;DHT22;8702;48.130;-1.696;2022-09-12T05:21:18;19.50;99.90
17174;DHT22;8702;48.130;-1.696;2022-09-12T05:23:46;19.50;99.90
17174;DHT22;8702;48.130;-1.696;2022-09-12T05:26:14;19.40;99.90
17174;DHT22;8702;48.130;-1.696;2022-09-12T05:28:42;19.40;99.90
17174;DHT22;8702;48.130;-1.696;2022-09-12T05:31:11;19.40;99.90
17174;DHT22;8702;48.130;-1.696;2022-09-12T05:33:40;19.40;99.90
17174;DHT22;8702;48.130;-1.696;2022-09-12T05:36:12;19.30;99.90
17174;DHT22;8702;48.130;-1.696;2022-09-12T05:38:39;19.30;99.90
17174;DHT22;8702;48.130;-1.696;2022-09-12T05:41:07;19.30;99.90
17174;DHT22;8702;48.130;-1.696;2022-09-12T05:43:36;19.30;99.90
17174;DHT22;8702;48.130;-1.696;2022-09-12T05:46:04;19.20;99.90
17174;DHT22;8702;48.130;-1.696;2022-09-12T05:48:33;19.20;99.90
17174;DHT22;8702;48.130;-1.696;2022-09-12T05:51:02;19.20;99.90
17174;DHT22;8702;48.130;-1.696;2022-09-12T05:53:33;19.20;99.90
17174;DHT22;8702;48.130;-1.696;2022-09-12T05:56:05;19.20;99.90
17174;DHT22;8702;48.130;-1.696;2022-09-12T05:58:33;19.20;99.90
17174;DHT22;8702;48.130;-1.696;2022-09-12T06:01:04;19.20;99.90
17174;DHT22;8702;48.130;-1.696;2022-09-12T06:03:33;19.20;99.90
17174;DHT22;8702;48.130;-1.696;2022-09-12T06:06:02;19.20;99.90
17174;DHT22;8702;48.130;-1.696;2022-09-12T06:08:30;19.20;99.90
17174;DHT22;8702;48.130;-1.696;2022-09-12T06:11:03;19.20;99.90
17174;DHT22;8702;48.130;-1.696;2022-09-12T06:13:31;19.20;99.90
17174;DHT22;8702;48.130;-1.696;2022-09-12T06:16:03;19.20;99.90
17174;DHT22;8702;48.130;-1.696;2022-09-12T06:18:31;19.10;99.90
17174;DHT22;8702;48.130;-1.696;2022-09-12T06:21:01;19.10;99.90
17174;DHT22;8702;48.130;-1.696;2022-09-12T06:23:28;19.00;99.90
17174;DHT22;8702;48.130;-1.696;2022-09-12T06:25:55;19.00;99.90
17174;DHT22;8702;48.130;-1.696;2022-09-12T06:28:24;19.00;99.90
17174;DHT22;8702;48.130;-1.696;2022-09-12T06:30:51;19.00;99.90
17174;DHT22;8702;48.130;-1.696;2022-09-12T06:33:18;19.00;99.90
17174;DHT22;8702;48.130;-1.696;2022-09-12T06:35:45;19.00;99.90
17174;DHT22;8702;48.130;-1.696;2022-09-12T06:38:12;19.00;99.90
17174;DHT22;8702;48.130;-1.696;2022-09-12T06:40:42;19.10;99.90
17174;DHT22;8702;48.130;-1.696;2022-09-12T06:43:11;19.10;99.90
17174;DHT22;8702;48.130;-1.696;2022-09-12T06:45:47;19.10;99.90
17174;DHT22;8702;48.130;-1.696;2022-09-12T06:48:15;19.10;99.90
17174;DHT22;8702;48.130;-1.696;2022-09-12T06:50:42;19.20;99.90
17174;DHT22;8702;48.130;-1.696;2022-09-12T06:53:09;19.20;99.90
17174;DHT22;8702;48.130;-1.696;2022-09-12T06:55:36;19.30;99.90
17174;DHT22;8702;48.130;-1.696;2022-09-12T06:58:03;19.30;99.90
17174;DHT22;8702;48.130;-1.696;2022-09-12T07:00:31;19.40;99.90
17174;DHT22;8702;48.130;-1.696;2022-09-12T07:02:59;19.50;99.90
17174;DHT22;8702;48.130;-1.696;2022-09-12T07:05:26;19.60;99.90
17174;DHT22;8702;48.130;-1.696;2022-09-12T07:07:53;19.60;99.90
17174;DHT22;8702;48.130;-1.696;2022-09-12T07:10:20;19.70;99.90
17174;DHT22;8702;48.130;-1.696;2022-09-12T07:12:47;19.80;99.90
17174;DHT22;8702;48.130;-1.696;2022-09-12T07:15:14;19.80;99.90
17174;DHT22;8702;48.130;-1.696;2022-09-12T07:17:42;19.90;99.90
17174;DHT22;8702;48.130;-1.696;2022-09-12T07:20:11;19.90;99.90
17174;DHT22;8702;48.130;-1.696;2022-09-12T07:22:37;20.00;99.90
17174;DHT22;8702;48.130;-1.696;2022-09-12T07:25:06;20.10;99.90
17174;DHT22;8702;48.130;-1.696;2022-09-12T07:27:33;20.10;99.90
17174;DHT22;8702;48.130;-1.696;2022-09-12T07:30:03;20.20;99.90
17174;DHT22;8702;48.130;-1.696;2022-09-12T07:32:30;20.20;99.90
17174;DHT22;8702;48.130;-1.696;2022-09-12T07:34:57;20.30;99.90
17174;DHT22;8702;48.130;-1.696;2022-09-12T07:37:27;20.40;99.90
17174;DHT22;8702;48.130;-1.696;2022-09-12T07:39:58;20.40;99.90
17174;DHT22;8702;48.130;-1.696;2022-09-12T07:42:25;20.50;99.90
17174;DHT22;8702;48.130;-1.696;2022-09-12T07:44:52;20.50;99.90
17174;DHT22;8702;48.130;-1.696;2022-09-12T07:47:19;20.50;99.90
17174;DHT22;8702;48.130;-1.696;2022-09-12T07:49:46;20.60;99.90
17174;DHT22;8702;48.130;-1.696;2022-09-12T07:52:13;20.60;99.90
17174;DHT22;8702;48.130;-1.696;2022-09-12T07:54:41;20.60;99.90
17174;DHT22;8702;48.130;-1.696;2022-09-12T07:57:09;20.60;99.90
17174;DHT22;8702;48.130;-1.696;2022-09-12T07:59:36;20.70;99.90
17174;DHT22;8702;48.130;-1.696;2022-09-12T08:02:10;20.80;99.90
17174;DHT22;8702;48.130;-1.696;2022-09-12T08:04:38;20.80;99.90
17174;DHT22;8702;48.130;-1.696;2022-09-12T08:07:06;20.80;99.90
17174;DHT22;8702;48.130;-1.696;2022-09-12T08:09:33;20.90;99.90
17174;DHT22;8702;48.130;-1.696;2022-09-12T08:12:02;20.90;99.90
17174;DHT22;8702;48.130;-1.696;2022-09-12T08:14:29;21.00;99.90
17174;DHT22;8702;48.130;-1.696;2022-09-12T08:16:56;21.10;99.90
17174;DHT22;8702;48.130;-1.696;2022-09-12T08:19:23;21.20;99.90
17174;DHT22;8702;48.130;-1.696;2022-09-12T08:21:50;21.20;99.90
17174;DHT22;8702;48.130;-1.696;2022-09-12T08:24:17;21.20;99.90
17174;DHT22;8702;48.130;-1.696;2022-09-12T08:26:44;21.30;99.90
17174;DHT22;8702;48.130;-1.696;2022-09-12T08:29:13;21.30;99.90
17174;DHT22;8702;48.130;-1.696;2022-09-12T08:31:40;21.40;99.90
17174;DHT22;8702;48.130;-1.696;2022-09-12T08:34:07;21.50;99.90
17174;DHT22;8702;48.130;-1.696;2022-09-12T08:36:35;21.60;99.90
17174;DHT22;8702;48.130;-1.696;2022-09-12T08:39:04;21.60;99.90
17174;DHT22;8702;48.130;-1.696;2022-09-12T08:41:35;21.70;99.90
17174;DHT22;8702;48.130;-1.696;2022-09-12T08:44:23;21.80;99.90
17174;DHT22;8702;48.130;-1.696;2022-09-12T08:50:00;21.90;99.90
17174;DHT22;8702;48.130;-1.696;2022-09-12T08:52:32;21.90;99.90
17174;DHT22;8702;48.130;-1.696;2022-09-12T08:55:02;22.00;99.90
17174;DHT22;8702;48.130;-1.696;2022-09-12T08:57:31;22.10;99.90
17174;DHT22;8702;48.130;-1.696;2022-09-12T09:00:02;22.20;99.90
17174;DHT22;8702;48.130;-1.696;2022-09-12T09:03:08;22.20;99.90
17174;DHT22;8702;48.130;-1.696;2022-09-12T09:05:47;22.20;99.90
17174;DHT22;8702;48.130;-1.696;2022-09-12T09:08:35;22.20;99.90
17174;DHT22;8702;48.130;-1.696;2022-09-12T09:11:20;22.20;99.90
17174;DHT22;8702;48.130;-1.696;2022-09-12T09:14:00;22.40;99.90
17174;DHT22;8702;48.130;-1.696;2022-09-12T09:16:49;22.50;99.90
17174;DHT22;8702;48.130;-1.696;2022-09-12T09:19:20;22.50;99.90
17174;DHT22;8702;48.130;-1.696;2022-09-12T09:21:52;22.50;99.80
17174;DHT22;8702;48.130;-1.696;2022-09-12T09:24:25;22.60;99.80
17174;DHT22;8702;48.130;-1.696;2022-09-12T09:26:57;22.60;99.60
17174;DHT22;8702;48.130;-1.696;2022-09-12T09:29:28;22.60;99.50
17174;DHT22;8702;48.130;-1.696;2022-09-12T09:31:59;22.70;99.50
17174;DHT22;8702;48.130;-1.696;2022-09-12T09:34:29;22.80;99.40
17174;DHT22;8702;48.130;-1.696;2022-09-12T09:37:04;22.80;99.40
17174;DHT22;8702;48.130;-1.696;2022-09-12T09:39:43;22.80;99.30
17174;DHT22;8702;48.130;-1.696;2022-09-12T09:42:22;22.90;99.30
17174;DHT22;8702;48.130;-1.696;2022-09-12T09:44:52;23.10;99.30
17174;DHT22;8702;48.130;-1.696;2022-09-12T09:47:23;23.10;99.40
17174;DHT22;8702;48.130;-1.696;2022-09-12T09:49:50;23.20;99.40
17174;DHT22;8702;48.130;-1.696;2022-09-12T09:52:23;23.30;99.10
17174;DHT22;8702;48.130;-1.696;2022-09-12T09:54:52;23.40;99.20
17174;DHT22;8702;48.130;-1.696;2022-09-12T09:57:39;23.40;99.30
17174;DHT22;8702;48.130;-1.696;2022-09-12T10:00:21;23.50;99.00
17174;DHT22;8702;48.130;-1.696;2022-09-12T10:05:45;23.60;98.70
17174;DHT22;8702;48.130;-1.696;2022-09-12T10:08:20;23.80;98.80
17174;DHT22;8702;48.130;-1.696;2022-09-12T10:10:55;23.80;98.20
17174;DHT22;8702;48.130;-1.696;2022-09-12T10:13:27;23.90;98.40
17174;DHT22;8702;48.130;-1.696;2022-09-12T10:15:59;23.90;98.30
17174;DHT22;8702;48.130;-1.696;2022-09-12T10:18:39;24.00;98.20
17174;DHT22;8702;48.130;-1.696;2022-09-12T10:21:21;24.00;98.10
17174;DHT22;8702;48.130;-1.696;2022-09-12T10:23:58;24.10;97.90
17174;DHT22;8702;48.130;-1.696;2022-09-12T10:26:31;24.20;97.50
17174;DHT22;8702;48.130;-1.696;2022-09-12T10:29:03;24.20;97.50
17174;DHT22;8702;48.130;-1.696;2022-09-12T10:31:40;24.30;97.70
17174;DHT22;8702;48.130;-1.696;2022-09-12T10:34:20;24.40;97.80
17174;DHT22;8702;48.130;-1.696;2022-09-12T10:36:51;24.50;97.30
17174;DHT22;8702;48.130;-1.696;2022-09-12T10:39:19;24.40;97.30
17174;DHT22;8702;48.130;-1.696;2022-09-12T10:41:47;24.50;96.90
17174;DHT22;8702;48.130;-1.696;2022-09-12T10:44:15;24.50;97.20
17174;DHT22;8702;48.130;-1.696;2022-09-12T10:46:43;24.60;97.10
17174;DHT22;8702;48.130;-1.696;2022-09-12T10:49:24;24.70;97.00
17174;DHT22;8702;48.130;-1.696;2022-09-12T10:51:52;24.80;96.90
17174;DHT22;8702;48.130;-1.696;2022-09-12T10:54:22;24.80;96.80
17174;DHT22;8702;48.130;-1.696;2022-09-12T10:57:17;24.90;96.80
17174;DHT22;8702;48.130;-1.696;2022-09-12T11:00:04;25.00;96.50
17174;DHT22;8702;48.130;-1.696;2022-09-12T11:02:47;25.10;96.60
17174;DHT22;8702;48.130;-1.696;2022-09-12T11:05:27;25.10;96.20
17174;DHT22;8702;48.130;-1.696;2022-09-12T11:08:06;25.10;96.60
17174;DHT22;8702;48.130;-1.696;2022-09-12T11:10:44;25.20;96.70
17174;DHT22;8702;48.130;-1.696;2022-09-12T11:13:24;25.20;96.20
17174;DHT22;8702;48.130;-1.696;2022-09-12T11:16:06;25.20;96.20
17174;DHT22;8702;48.130;-1.696;2022-09-12T11:18:56;25.30;96.20
17174;DHT22;8702;48.130;-1.696;2022-09-12T11:21:38;25.30;96.00
17174;DHT22;8702;48.130;-1.696;2022-09-12T11:24:36;25.40;96.20
17174;DHT22;8702;48.130;-1.696;2022-09-12T11:27:23;25.50;95.90
17174;DHT22;8702;48.130;-1.696;2022-09-12T11:29:57;25.60;96.30
17174;DHT22;8702;48.130;-1.696;2022-09-12T11:32:39;25.60;95.40
17174;DHT22;8702;48.130;-1.696;2022-09-12T11:35:17;25.60;95.40
17174;DHT22;8702;48.130;-1.696;2022-09-12T11:37:57;25.70;95.50
17174;DHT22;8702;48.130;-1.696;2022-09-12T11:40:29;25.80;94.60
17174;DHT22;8702;48.130;-1.696;2022-09-12T11:43:02;25.80;94.90
17174;DHT22;8702;48.130;-1.696;2022-09-12T11:45:36;25.80;95.10
17174;DHT22;8702;48.130;-1.696;2022-09-12T11:48:10;25.90;94.40
17174;DHT22;8702;48.130;-1.696;2022-09-12T11:50:37;25.90;94.50
17174;DHT22;8702;48.130;-1.696;2022-09-12T11:53:12;26.00;95.00
17174;DHT22;8702;48.130;-1.696;2022-09-12T11:55:48;26.10;94.50
17174;DHT22;8702;48.130;-1.696;2022-09-12T11:58:22;26.20;94.40
17174;DHT22;8702;48.130;-1.696;2022-09-12T12:00:52;26.20;94.90
17174;DHT22;8702;48.130;-1.696;2022-09-12T12:03:27;26.30;94.80
17174;DHT22;8702;48.130;-1.696;2022-09-12T12:06:00;26.30;94.80
17174;DHT22;8702;48.130;-1.696;2022-09-12T12:08:33;26.40;94.60
17174;DHT22;8702;48.130;-1.696;2022-09-12T12:11:04;26.50;94.30
17174;DHT22;8702;48.130;-1.696;2022-09-12T12:13:34;26.50;94.70
17174;DHT22;8702;48.130;-1.696;2022-09-12T12:16:06;26.60;94.60
17174;DHT22;8702;48.130;-1.696;2022-09-12T12:18:36;26.70;94.70
17174;DHT22;8702;48.130;-1.696;2022-09-12T12:21:34;26.70;94.40
17174;DHT22;8702;48.130;-1.696;2022-09-12T12:24:11;26.80;94.30
17174;DHT22;8702;48.130;-1.696;2022-09-12T12:26:43;26.80;94.20
17174;DHT22;8702;48.130;-1.696;2022-09-12T12:29:11;26.80;94.30
17174;DHT22;8702;48.130;-1.696;2022-09-12T12:35:01;26.90;93.60
17174;DHT22;8702;48.130;-1.696;2022-09-12T12:37:49;27.00;94.00
17174;DHT22;8702;48.130;-1.696;2022-09-12T12:40:24;27.00;93.20
17174;DHT22;8702;48.130;-1.696;2022-09-12T12:43:03;27.00;93.20
17174;DHT22;8702;48.130;-1.696;2022-09-12T12:48:52;27.30;93.60
17174;DHT22;8702;48.130;-1.696;2022-09-12T12:51:29;27.40;93.10
17174;DHT22;8702;48.130;-1.696;2022-09-12T12:53:59;27.30;92.00
17174;DHT22;8702;48.130;-1.696;2022-09-12T13:11:31;27.90;99.90
17174;DHT22;8702;48.130;-1.696;2022-09-12T13:14:01;27.90;93.00
17174;DHT22;8702;48.130;-1.696;2022-09-12T13:16:31;27.80;93.20
17174;DHT22;8702;48.130;-1.696;2022-09-12T13:19:02;27.80;92.50
17174;DHT22;8702;48.130;-1.696;2022-09-12T13:21:30;27.80;92.30
17174;DHT22;8702;48.130;-1.696;2022-09-12T13:24:02;27.80;92.10
17174;DHT22;8702;48.130;-1.696;2022-09-12T13:26:39;27.80;92.20
17174;DHT22;8702;48.130;-1.696;2022-09-12T13:29:11;27.90;92.40
17174;DHT22;8702;48.130;-1.696;2022-09-12T13:31:38;28.00;92.50
17174;DHT22;8702;48.130;-1.696;2022-09-12T13:34:08;28.10;92.40
17174;DHT22;8702;48.130;-1.696;2022-09-12T13:36:45;28.10;92.10
17174;DHT22;8702;48.130;-1.696;2022-09-12T13:39:18;28.20;91.90
17174;DHT22;8702;48.130;-1.696;2022-09-12T13:42:17;28.20;91.70
17174;DHT22;8702;48.130;-1.696;2022-09-12T13:44:49;28.30;91.60
17174;DHT22;8702;48.130;-1.696;2022-09-12T13:47:21;28.40;92.10
17174;DHT22;8702;48.130;-1.696;2022-09-12T13:49:49;28.50;91.80
17174;DHT22;8702;48.130;-1.696;2022-09-12T13:52:19;28.60;91.80
17174;DHT22;8702;48.130;-1.696;2022-09-12T13:54:50;28.60;91.40
17174;DHT22;8702;48.130;-1.696;2022-09-12T13:57:31;28.60;91.30
17174;DHT22;8702;48.130;-1.696;2022-09-12T14:00:01;28.70;91.10
17174;DHT22;8702;48.130;-1.696;2022-09-12T14:02:35;28.70;91.10
17174;DHT22;8702;48.130;-1.696;2022-09-12T14:05:11;28.80;91.20
17174;DHT22;8702;48.130;-1.696;2022-09-12T14:07:44;28.90;90.90
17174;DHT22;8702;48.130;-1.696;2022-09-12T14:10:27;29.00;91.80
17174;DHT22;8702;48.130;-1.696;2022-09-12T14:12:59;29.10;91.40
17174;DHT22;8702;48.130;-1.696;2022-09-12T14:15:32;29.20;91.00
17174;DHT22;8702;48.130;-1.696;2022-09-12T14:18:04;29.20;91.10
17174;DHT22;8702;48.130;-1.696;2022-09-12T14:20:34;29.20;91.10
17174;DHT22;8702;48.130;-1.696;2022-09-12T14:23:03;29.30;90.80
17174;DHT22;8702;48.130;-1.696;2022-09-12T14:25:35;29.20;90.70
17174;DHT22;8702;48.130;-1.696;2022-09-12T14:28:05;29.30;90.50
17174;DHT22;8702;48.130;-1.696;2022-09-12T14:30:33;29.30;91.20
17174;DHT22;8702;48.130;-1.696;2022-09-12T14:33:18;29.40;90.50
17174;DHT22;8702;48.130;-1.696;2022-09-12T14:35:47;29.40;90.40
17174;DHT22;8702;48.130;-1.696;2022-09-12T14:38:21;29.40;90.60
17174;DHT22;8702;48.130;-1.696;2022-09-12T14:40:51;29.40;90.70
17174;DHT22;8702;48.130;-1.696;2022-09-12T14:43:26;29.40;90.60
17174;DHT22;8702;48.130;-1.696;2022-09-12T14:45:56;29.30;90.50
17174;DHT22;8702;48.130;-1.696;2022-09-12T14:48:24;29.30;90.30
17174;DHT22;8702;48.130;-1.696;2022-09-12T14:50:53;29.30;90.40
17174;DHT22;8702;48.130;-1.696;2022-09-12T14:53:29;29.30;90.30
17174;DHT22;8702;48.130;-1.696;2022-09-12T14:56:03;29.40;90.60
17174;DHT22;8702;48.130;-1.696;2022-09-12T14:58:33;29.40;90.30
17174;DHT22;8702;48.130;-1.696;2022-09-12T15:01:01;29.40;90.10
17174;DHT22;8702;48.130;-1.696;2022-09-12T15:03:31;29.40;90.30
17174;DHT22;8702;48.130;-1.696;2022-09-12T15:05:59;29.40;90.30
17174;DHT22;8702;48.130;-1.696;2022-09-12T15:08:28;29.40;90.40
17174;DHT22;8702;48.130;-1.696;2022-09-12T15:10:55;29.30;90.00
17174;DHT22;8702;48.130;-1.696;2022-09-12T15:13:24;29.30;90.30
17174;DHT22;8702;48.130;-1.696;2022-09-12T15:15:55;29.30;90.40
17174;DHT22;8702;48.130;-1.696;2022-09-12T15:18:24;29.30;90.40
17174;DHT22;8702;48.130;-1.696;2022-09-12T15:20:54;29.20;90.10
17174;DHT22;8702;48.130;-1.696;2022-09-12T15:23:34;29.10;90.10
17174;DHT22;8702;48.130;-1.696;2022-09-12T15:26:03;29.10;90.50
17174;DHT22;8702;48.130;-1.696;2022-09-12T15:28:30;29.10;90.40
17174;DHT22;8702;48.130;-1.696;2022-09-12T15:31:04;29.00;90.50
17174;DHT22;8702;48.130;-1.696;2022-09-12T15:33:31;29.00;90.50
17174;DHT22;8702;48.130;-1.696;2022-09-12T15:35:58;28.90;90.40
17174;DHT22;8702;48.130;-1.696;2022-09-12T15:38:25;28.90;90.50
17174;DHT22;8702;48.130;-1.696;2022-09-12T15:40:52;28.80;90.50
17174;DHT22;8702;48.130;-1.696;2022-09-12T15:43:20;28.90;90.50
17174;DHT22;8702;48.130;-1.696;2022-09-12T15:45:49;28.90;90.60
17174;DHT22;8702;48.130;-1.696;2022-09-12T15:48:18;28.90;90.70
17174;DHT22;8702;48.130;-1.696;2022-09-12T15:50:45;29.00;90.70
17174;DHT22;8702;48.130;-1.696;2022-09-12T15:53:14;29.00;90.70
17174;DHT22;8702;48.130;-1.696;2022-09-12T15:55:42;29.00;90.70
17174;DHT22;8702;48.130;-1.696;2022-09-12T15:58:09;28.90;90.90
17174;DHT22;8702;48.130;-1.696;2022-09-12T16:00:36;28.90;91.00
17174;DHT22;8702;48.130;-1.696;2022-09-12T16:03:04;28.90;91.10
17174;DHT22;8702;48.130;-1.696;2022-09-12T16:05:32;28.80;91.00
17174;DHT22;8702;48.130;-1.696;2022-09-12T16:07:59;28.70;91.20
17174;DHT22;8702;48.130;-1.696;2022-09-12T16:10:28;28.70;91.30
17174;DHT22;8702;48.130;-1.696;2022-09-12T16:12:56;28.70;91.40
17174;DHT22;8702;48.130;-1.696;2022-09-12T16:15:24;28.60;91.50
17174;DHT22;8702;48.130;-1.696;2022-09-12T16:17:53;28.60;91.60
17174;DHT22;8702;48.130;-1.696;2022-09-12T16:20:21;28.60;91.60
17174;DHT22;8702;48.130;-1.696;2022-09-12T16:22:51;28.60;91.70
17174;DHT22;8702;48.130;-1.696;2022-09-12T16:25:18;28.60;91.70
17174;DHT22;8702;48.130;-1.696;2022-09-12T16:27:47;28.60;91.80